地図

経路データ

SID SEASON NUMBER BASIN SUBBASIN NAME ISO_TIME NATURE LAT LON WMO_WIND WMO_PRES WMO_AGENCY TRACK_TYPE DIST2LAND LANDFALL IFLAG USA_AGENCY USA_ATCF_ID USA_LAT USA_LON USA_RECORD USA_STATUS USA_WIND USA_PRES USA_SSHS USA_R34_NE USA_R34_SE USA_R34_SW USA_R34_NW USA_R50_NE USA_R50_SE USA_R50_SW USA_R50_NW USA_R64_NE USA_R64_SE USA_R64_SW USA_R64_NW USA_POCI USA_ROCI USA_RMW USA_EYE TOKYO_LAT TOKYO_LON TOKYO_GRADE TOKYO_WIND TOKYO_PRES TOKYO_R50_DIR TOKYO_R50_LONG TOKYO_R50_SHORT TOKYO_R30_DIR TOKYO_R30_LONG TOKYO_R30_SHORT TOKYO_LAND CMA_LAT CMA_LON CMA_CAT CMA_WIND CMA_PRES HKO_LAT HKO_LON HKO_CAT HKO_WIND HKO_PRES NEWDELHI_LAT NEWDELHI_LON NEWDELHI_GRADE NEWDELHI_WIND NEWDELHI_PRES NEWDELHI_CI NEWDELHI_DP NEWDELHI_POCI REUNION_LAT REUNION_LON REUNION_TYPE REUNION_WIND REUNION_PRES REUNION_TNUM REUNION_CI REUNION_RMW REUNION_R34_NE REUNION_R34_SE REUNION_R34_SW REUNION_R34_NW REUNION_R50_NE REUNION_R50_SE REUNION_R50_SW REUNION_R50_NW REUNION_R64_NE REUNION_R64_SE REUNION_R64_SW REUNION_R64_NW BOM_LAT BOM_LON BOM_TYPE BOM_WIND BOM_PRES BOM_TNUM BOM_CI BOM_RMW BOM_R34_NE BOM_R34_SE BOM_R34_SW BOM_R34_NW BOM_R50_NE BOM_R50_SE BOM_R50_SW BOM_R50_NW BOM_R64_NE BOM_R64_SE BOM_R64_SW BOM_R64_NW BOM_ROCI BOM_POCI BOM_EYE BOM_POS_METHOD BOM_PRES_METHOD NADI_LAT NADI_LON NADI_CAT NADI_WIND NADI_PRES WELLINGTON_LAT WELLINGTON_LON WELLINGTON_WIND WELLINGTON_PRES DS824_LAT DS824_LON DS824_STAGE DS824_WIND DS824_PRES TD9636_LAT TD9636_LON TD9636_STAGE TD9636_WIND TD9636_PRES TD9635_LAT TD9635_LON TD9635_WIND TD9635_PRES TD9635_ROCI NEUMANN_LAT NEUMANN_LON NEUMANN_CLASS NEUMANN_WIND NEUMANN_PRES MLC_LAT MLC_LON MLC_CLASS MLC_WIND MLC_PRES USA_GUST BOM_GUST BOM_GUST_PER REUNION_GUST REUNION_GUST_PER USA_SEAHGT USA_SEARAD_NE USA_SEARAD_SE USA_SEARAD_SW USA_SEARAD_NW STORM_SPEED STORM_DIR
1928086S15108 1928 25 SI WA NOT_NAMED 1928-03-25 12:00:00 NR -15.3000 108.300 main 836 836 __________O___ -1 -15.3000 108.300 7 2 206
1928086S15108 1928 25 SI WA NOT_NAMED 1928-03-25 15:00:00 NR -15.3874 108.256 main 847 847 __________P___ -1 -15.3874 108.256 7 2 205
1928086S15108 1928 25 SI WA NOT_NAMED 1928-03-25 18:00:00 NR -15.4998 108.200 main 861 861 __________P___ -1 -15.4998 108.200 7 3 205
1928086S15108 1928 25 SI WA NOT_NAMED 1928-03-25 21:00:00 NR -15.6623 108.118 main 885 874 __________P___ -1 -15.6623 108.118 7 4 206
1928086S15108 1928 25 SI WA NOT_NAMED 1928-03-26 00:00:00 NR -15.9000 108.000 main 908 888 __________O___ -1 -15.9000 108.000 7 11 192
1928086S15108 1928 25 SI WA NOT_NAMED 1928-03-26 01:00:00 NR -16.4001 107.960 1001 bom main 880 849 ______O___P___ -1 -18.0000 108.000 1001 -16.0001 107.950 7 20 188
1928086S15108 1928 25 SI WA NOT_NAMED 1928-03-26 03:00:00 NR -16.9054 107.865 main 849 822 ______P___P___ -1 -18.2501 107.918 -16.2331 107.838 7 14 192
1928086S15108 1928 25 SI WA NOT_NAMED 1928-03-26 06:00:00 NR -17.5040 107.712 main 822 792 ______P___P___ -1 -18.6254 107.795 -16.6629 107.650 7 12 194
1928086S15108 1928 25 SI WA NOT_NAMED 1928-03-26 09:00:00 NR -18.0934 107.567 main 792 777 ______P___P___ -1 -19.0006 107.671 -17.1862 107.463 7 11 194
1928086S15108 1928 25 SI WA NOT_NAMED 1928-03-26 12:00:00 NR -18.5879 107.423 main 780 762 ______P___O___ -1 -19.3757 107.546 -17.8000 107.300 7 11 195
1928086S15108 1928 25 SI WA NOT_NAMED 1928-03-26 15:00:00 NR -19.1420 107.279 main 762 738 ______P___P___ -1 -19.7508 107.421 -18.5332 107.137 7 12 193
1928086S15108 1928 25 SI WA NOT_NAMED 1928-03-26 18:00:00 NR -19.7340 107.153 main 738 724 ______P___P___ -1 -20.1258 107.295 -19.3422 107.010 7 12 191
1928086S15108 1928 25 SI WA NOT_NAMED 1928-03-26 21:00:00 NR -20.3031 107.045 main 729 707 ______P___P___ -1 -20.5006 107.169 -20.1551 106.953 7 12 186
1928086S15108 1928 25 SI WA NOT_NAMED 1928-03-27 00:00:00 TS -20.8929 107.012 main 707 701 ______P___O___ -1 -20.8752 107.042 -20.9000 107.000 TC 30 999 -20.9000 107.000 7 12 0
1928086S15108 1928 25 SI WA NOT_NAMED 1928-03-27 01:00:00 NR -21.0827 107.032 999 bom main 701 683 ______O___P___ -1 -21.0000 107.000 999 -21.1034 107.040 7 12 167
1928086S15108 1928 25 SI WA NOT_NAMED 1928-03-27 03:00:00 NR -21.4787 107.159 main 670 641 __________P___ -1 -21.4787 107.159 7 12 158
1928086S15108 1928 25 SI WA NOT_NAMED 1928-03-27 06:00:00 NR -21.9819 107.428 main 641 596 __________P___ -1 -21.9819 107.428 7 11 149
1928086S15108 1928 25 SI WA NOT_NAMED 1928-03-27 09:00:00 NR -22.4442 107.782 main 596 551 __________P___ -1 -22.4442 107.782 7 12 142
1928086S15108 1928 25 SI WA NOT_NAMED 1928-03-27 12:00:00 NR -22.9000 108.200 main 551 503 __________O___ -1 -22.9000 108.200 7 12 139
1928086S15108 1928 25 SI WA NOT_NAMED 1928-03-27 15:00:00 NR -23.3768 108.661 main 490 441 __________P___ -1 -23.3768 108.661 7 13 138
1928086S15108 1928 25 SI WA NOT_NAMED 1928-03-27 18:00:00 NR -23.8742 109.154 main 429 384 __________P___ -1 -23.8742 109.154 7 14 138
1928086S15108 1928 25 SI WA NOT_NAMED 1928-03-27 21:00:00 NR -24.3844 109.670 main 374 327 __________P___ -1 -24.3844 109.670 7 14 137
1928086S15108 1928 25 SI WA NOT_NAMED 1928-03-28 00:00:00 NR -24.9000 110.200 main 327 __________O___ -1 -24.9000 110.200 7 14 137

IBTrACS Databaseについて

本データベースは、米国NOAAが公開する1842年以降の世界の熱帯低気圧のベストトラックデータアーカイブInternational Best Track Archive for Climate Stewardship (IBTrACS)を、ウェブで閲覧しやすい形式に変換したものです。

最終更新日:2021-11-26